sensor_id;sensor_type;location;lat;lon;timestamp;pressure;altitude;pressure_sealevel;temperature;humidity
60920;BME280;59039;52.108;19.942;2023-02-18T00:05:27;99735.91;;;7.28;68.27
60920;BME280;59039;52.108;19.942;2023-02-18T00:07:55;99733.42;;;7.28;69.18
60920;BME280;59039;52.108;19.942;2023-02-18T00:11:02;99720.73;;;7.27;68.75
60920;BME280;59039;52.108;19.942;2023-02-18T00:13:31;99734.05;;;7.27;69.22
60920;BME280;59039;52.108;19.942;2023-02-18T00:16:04;99759.56;;;7.26;68.89
60920;BME280;59039;52.108;19.942;2023-02-18T00:18:52;99751.14;;;7.25;68.45
60920;BME280;59039;52.108;19.942;2023-02-18T00:21:23;99745.13;;;7.25;66.52
60920;BME280;59039;52.108;19.942;2023-02-18T00:23:54;99749.02;;;7.25;66.92
60920;BME280;59039;52.108;19.942;2023-02-18T00:26:19;99753.17;;;7.25;67.15
60920;BME280;59039;52.108;19.942;2023-02-18T00:29:00;99758.01;;;7.25;68.22
60920;BME280;59039;52.108;19.942;2023-02-18T00:34:21;99764.47;;;7.24;67.21
60920;BME280;59039;52.108;19.942;2023-02-18T00:36:49;99768.78;;;7.22;66.89
60920;BME280;59039;52.108;19.942;2023-02-18T00:39:18;99765.13;;;7.22;68.24
60920;BME280;59039;52.108;19.942;2023-02-18T00:44:30;99774.13;;;7.19;66.72
60920;BME280;59039;52.108;19.942;2023-02-18T00:46:59;99779.52;;;7.17;67.14
60920;BME280;59039;52.108;19.942;2023-02-18T00:49:24;99777.87;;;7.16;67.23
60920;BME280;59039;52.108;19.942;2023-02-18T00:51:53;99773.30;;;7.15;69.09
60920;BME280;59039;52.108;19.942;2023-02-18T00:54:42;99771.95;;;7.14;69.13
60920;BME280;59039;52.108;19.942;2023-02-18T00:57:13;99760.63;;;7.11;67.72
60920;BME280;59039;52.108;19.942;2023-02-18T01:02:22;99760.23;;;7.10;68.75
60920;BME280;59039;52.108;19.942;2023-02-18T01:04:58;99760.32;;;7.11;70.91
60920;BME280;59039;52.108;19.942;2023-02-18T01:07:26;99767.45;;;7.11;70.14
60920;BME280;59039;52.108;19.942;2023-02-18T01:10:02;99767.77;;;7.12;70.99
60920;BME280;59039;52.108;19.942;2023-02-18T01:12:28;99762.10;;;7.13;70.64
60920;BME280;59039;52.108;19.942;2023-02-18T01:14:59;99757.44;;;7.10;68.68
60920;BME280;59039;52.108;19.942;2023-02-18T01:17:28;99756.90;;;7.11;70.20
60920;BME280;59039;52.108;19.942;2023-02-18T01:19:59;99750.94;;;7.10;71.03
60920;BME280;59039;52.108;19.942;2023-02-18T01:22:37;99742.85;;;7.09;68.70
60920;BME280;59039;52.108;19.942;2023-02-18T01:25:06;99741.98;;;7.08;70.56
60920;BME280;59039;52.108;19.942;2023-02-18T01:27:39;99741.02;;;7.07;69.83
60920;BME280;59039;52.108;19.942;2023-02-18T01:32:48;99737.41;;;7.02;69.85
60920;BME280;59039;52.108;19.942;2023-02-18T01:35:29;99733.60;;;7.00;71.03
60920;BME280;59039;52.108;19.942;2023-02-18T01:40:45;99743.60;;;6.94;69.37
60920;BME280;59039;52.108;19.942;2023-02-18T01:43:27;99741.59;;;6.92;68.99
60920;BME280;59039;52.108;19.942;2023-02-18T01:46:13;99745.55;;;6.90;69.19
60920;BME280;59039;52.108;19.942;2023-02-18T01:48:46;99748.32;;;6.88;69.54
60920;BME280;59039;52.108;19.942;2023-02-18T01:53:58;99751.11;;;6.81;69.27
60920;BME280;59039;52.108;19.942;2023-02-18T01:59:45;99747.15;;;6.72;70.04
60920;BME280;59039;52.108;19.942;2023-02-18T02:02:13;99748.23;;;6.68;69.11
60920;BME280;59039;52.108;19.942;2023-02-18T02:04:40;99747.51;;;6.66;69.55
60920;BME280;59039;52.108;19.942;2023-02-18T02:07:11;99745.20;;;6.62;69.52
60920;BME280;59039;52.108;19.942;2023-02-18T02:09:38;99747.66;;;6.59;69.86
60920;BME280;59039;52.108;19.942;2023-02-18T02:16:21;99743.34;;;6.51;69.11
60920;BME280;59039;52.108;19.942;2023-02-18T02:28:19;99739.44;;;6.37;68.90
60920;BME280;59039;52.108;19.942;2023-02-18T02:30:50;99741.65;;;6.35;68.82
60920;BME280;59039;52.108;19.942;2023-02-18T02:39:33;99734.56;;;6.28;69.01
60920;BME280;59039;52.108;19.942;2023-02-18T02:51:19;99747.45;;;6.15;68.95
60920;BME280;59039;52.108;19.942;2023-02-18T02:54:13;99752.46;;;6.11;68.74
60920;BME280;59039;52.108;19.942;2023-02-18T02:56:45;99763.38;;;6.08;67.75
60920;BME280;59039;52.108;19.942;2023-02-18T02:59:39;99765.65;;;6.07;69.06
60920;BME280;59039;52.108;19.942;2023-02-18T03:08:39;99770.11;;;6.00;69.09
60920;BME280;59039;52.108;19.942;2023-02-18T03:11:12;99778.77;;;5.95;68.47
60920;BME280;59039;52.108;19.942;2023-02-18T03:14:20;99785.02;;;5.94;68.84
60920;BME280;59039;52.108;19.942;2023-02-18T03:16:54;99779.70;;;5.93;69.92
60920;BME280;59039;52.108;19.942;2023-02-18T03:19:36;99776.89;;;5.92;69.87
60920;BME280;59039;52.108;19.942;2023-02-18T03:22:10;99783.08;;;5.91;70.05
60920;BME280;59039;52.108;19.942;2023-02-18T03:24:49;99785.27;;;5.89;69.17
60920;BME280;59039;52.108;19.942;2023-02-18T03:28:24;99781.06;;;5.88;69.92
60920;BME280;59039;52.108;19.942;2023-02-18T03:30:58;99777.82;;;5.85;69.56
60920;BME280;59039;52.108;19.942;2023-02-18T03:33:35;99780.57;;;5.83;69.22
60920;BME280;59039;52.108;19.942;2023-02-18T03:36:24;99784.86;;;5.81;68.67
60920;BME280;59039;52.108;19.942;2023-02-18T03:38:59;99790.58;;;5.82;69.20
60920;BME280;59039;52.108;19.942;2023-02-18T03:44:47;99793.52;;;5.79;69.59
60920;BME280;59039;52.108;19.942;2023-02-18T03:47:36;99795.89;;;5.77;69.13
60920;BME280;59039;52.108;19.942;2023-02-18T03:53:15;99806.48;;;5.73;69.17
60920;BME280;59039;52.108;19.942;2023-02-18T03:56:04;99814.07;;;5.71;68.86
60920;BME280;59039;52.108;19.942;2023-02-18T03:58:40;99816.25;;;5.69;68.37
60920;BME280;59039;52.108;19.942;2023-02-18T04:01:11;99823.96;;;5.69;69.76
60920;BME280;59039;52.108;19.942;2023-02-18T04:03:54;99828.52;;;5.68;69.37
60920;BME280;59039;52.108;19.942;2023-02-18T04:06:23;99828.08;;;5.67;69.66
60920;BME280;59039;52.108;19.942;2023-02-18T04:09:15;99827.51;;;5.65;69.51
60920;BME280;59039;52.108;19.942;2023-02-18T04:11:45;99831.15;;;5.62;68.92
60920;BME280;59039;52.108;19.942;2023-02-18T04:14:33;99833.99;;;5.62;70.45
60920;BME280;59039;52.108;19.942;2023-02-18T04:17:08;99838.36;;;5.62;70.22
60920;BME280;59039;52.108;19.942;2023-02-18T04:19:36;99840.26;;;5.59;70.04
60920;BME280;59039;52.108;19.942;2023-02-18T04:22:05;99834.20;;;5.58;70.92
60920;BME280;59039;52.108;19.942;2023-02-18T04:24:45;99832.77;;;5.56;70.26
60920;BME280;59039;52.108;19.942;2023-02-18T04:27:17;99843.45;;;5.55;70.84
60920;BME280;59039;52.108;19.942;2023-02-18T04:30:03;99851.05;;;5.53;70.29
60920;BME280;59039;52.108;19.942;2023-02-18T04:32:39;99853.96;;;5.51;69.27
60920;BME280;59039;52.108;19.942;2023-02-18T04:35:20;99857.75;;;5.50;70.27
60920;BME280;59039;52.108;19.942;2023-02-18T04:37:52;99853.19;;;5.49;70.54
60920;BME280;59039;52.108;19.942;2023-02-18T04:40:43;99849.95;;;5.49;70.63
60920;BME280;59039;52.108;19.942;2023-02-18T04:46:04;99850.08;;;5.46;71.12
60920;BME280;59039;52.108;19.942;2023-02-18T04:49:11;99849.09;;;5.45;70.83
60920;BME280;59039;52.108;19.942;2023-02-18T04:51:35;99849.72;;;5.41;70.57
60920;BME280;59039;52.108;19.942;2023-02-18T04:54:11;99856.92;;;5.41;70.12
60920;BME280;59039;52.108;19.942;2023-02-18T04:59:18;99848.98;;;5.40;71.03
60920;BME280;59039;52.108;19.942;2023-02-18T05:02:24;99841.92;;;5.38;71.25
60920;BME280;59039;52.108;19.942;2023-02-18T05:05:09;99843.45;;;5.37;71.18
60920;BME280;59039;52.108;19.942;2023-02-18T05:07:58;99854.23;;;5.35;70.94
60920;BME280;59039;52.108;19.942;2023-02-18T05:10:32;99848.88;;;5.35;71.60
60920;BME280;59039;52.108;19.942;2023-02-18T05:18:45;99844.27;;;5.30;71.14
60920;BME280;59039;52.108;19.942;2023-02-18T05:21:13;99833.88;;;5.28;71.48
60920;BME280;59039;52.108;19.942;2023-02-18T05:23:42;99834.40;;;5.26;71.52
60920;BME280;59039;52.108;19.942;2023-02-18T05:29:04;99838.19;;;5.23;71.68
60920;BME280;59039;52.108;19.942;2023-02-18T05:32:11;99838.56;;;5.23;72.00
60920;BME280;59039;52.108;19.942;2023-02-18T05:35:10;99848.45;;;5.21;72.09
60920;BME280;59039;52.108;19.942;2023-02-18T05:38:02;99850.09;;;5.19;72.05
60920;BME280;59039;52.108;19.942;2023-02-18T05:40:51;99835.80;;;5.18;72.20
60920;BME280;59039;52.108;19.942;2023-02-18T05:43:19;99845.96;;;5.14;72.07
60920;BME280;59039;52.108;19.942;2023-02-18T05:46:05;99851.02;;;5.12;72.00
60920;BME280;59039;52.108;19.942;2023-02-18T05:48:46;99850.14;;;5.12;72.37
60920;BME280;59039;52.108;19.942;2023-02-18T05:51:24;99855.40;;;5.12;72.34
60920;BME280;59039;52.108;19.942;2023-02-18T05:53:52;99862.83;;;5.09;71.96
60920;BME280;59039;52.108;19.942;2023-02-18T05:56:22;99858.00;;;5.09;72.67
60920;BME280;59039;52.108;19.942;2023-02-18T05:59:29;99867.49;;;5.09;72.62
60920;BME280;59039;52.108;19.942;2023-02-18T06:05:12;99884.59;;;5.06;72.13
60920;BME280;59039;52.108;19.942;2023-02-18T06:10:31;99886.69;;;5.05;72.47
60920;BME280;59039;52.108;19.942;2023-02-18T06:13:06;99888.55;;;5.04;72.35
60920;BME280;59039;52.108;19.942;2023-02-18T06:15:40;99895.62;;;5.05;72.63
60920;BME280;59039;52.108;19.942;2023-02-18T06:18:28;99895.12;;;5.07;72.87
60920;BME280;59039;52.108;19.942;2023-02-18T06:21:11;99897.20;;;5.06;72.14
60920;BME280;59039;52.108;19.942;2023-02-18T06:26:21;99907.10;;;5.08;72.95
60920;BME280;59039;52.108;19.942;2023-02-18T06:28:57;99912.89;;;5.07;72.27
60920;BME280;59039;52.108;19.942;2023-02-18T06:34:04;99914.67;;;5.11;73.27
60920;BME280;59039;52.108;19.942;2023-02-18T06:36:30;99925.85;;;5.11;72.30
60920;BME280;59039;52.108;19.942;2023-02-18T06:39:23;99934.16;;;5.13;72.54
60920;BME280;59039;52.108;19.942;2023-02-18T06:41:59;99936.02;;;5.16;73.11
60920;BME280;59039;52.108;19.942;2023-02-18T06:44:27;99946.02;;;5.19;73.00
60920;BME280;59039;52.108;19.942;2023-02-18T06:46:55;99956.27;;;5.20;71.55
60920;BME280;59039;52.108;19.942;2023-02-18T06:49:39;99961.96;;;5.23;72.38
60920;BME280;59039;52.108;19.942;2023-02-18T06:52:25;99967.60;;;5.27;73.17
60920;BME280;59039;52.108;19.942;2023-02-18T06:55:12;99970.20;;;5.30;73.19
60920;BME280;59039;52.108;19.942;2023-02-18T06:57:40;99967.95;;;5.33;72.66
60920;BME280;59039;52.108;19.942;2023-02-18T07:00:27;99965.39;;;5.36;72.48
60920;BME280;59039;52.108;19.942;2023-02-18T07:05:56;99979.81;;;5.41;71.72
60920;BME280;59039;52.108;19.942;2023-02-18T07:08:24;99982.09;;;5.46;71.69
60920;BME280;59039;52.108;19.942;2023-02-18T07:11:10;99982.66;;;5.50;71.96
60920;BME280;59039;52.108;19.942;2023-02-18T07:13:54;99983.73;;;5.52;71.06
60920;BME280;59039;52.108;19.942;2023-02-18T07:16:21;99980.33;;;5.56;71.87
60920;BME280;59039;52.108;19.942;2023-02-18T07:18:52;99971.70;;;5.58;71.50
60920;BME280;59039;52.108;19.942;2023-02-18T07:21:17;99981.06;;;5.60;71.48
60920;BME280;59039;52.108;19.942;2023-02-18T07:23:46;99984.05;;;5.63;71.84
60920;BME280;59039;52.108;19.942;2023-02-18T07:26:12;99986.69;;;5.66;71.28
60920;BME280;59039;52.108;19.942;2023-02-18T07:29:01;99989.48;;;5.69;71.82
60920;BME280;59039;52.108;19.942;2023-02-18T07:31:50;99987.77;;;5.70;71.55
60920;BME280;59039;52.108;19.942;2023-02-18T07:34:22;99982.92;;;5.74;72.01
60920;BME280;59039;52.108;19.942;2023-02-18T07:42:38;99971.19;;;5.78;70.46
60920;BME280;59039;52.108;19.942;2023-02-18T07:45:06;99973.56;;;5.80;70.43
60920;BME280;59039;52.108;19.942;2023-02-18T07:47:39;99964.91;;;5.82;69.56
60920;BME280;59039;52.108;19.942;2023-02-18T07:50:15;99967.14;;;5.86;69.35
60920;BME280;59039;52.108;19.942;2023-02-18T07:52:46;99968.69;;;5.91;70.28
60920;BME280;59039;52.108;19.942;2023-02-18T07:55:15;99968.20;;;5.94;70.57
60920;BME280;59039;52.108;19.942;2023-02-18T07:57:40;99970.66;;;6.01;70.77
60920;BME280;59039;52.108;19.942;2023-02-18T08:00:06;99966.19;;;6.07;71.00
60920;BME280;59039;52.108;19.942;2023-02-18T08:02:35;99973.41;;;6.13;69.97
60920;BME280;59039;52.108;19.942;2023-02-18T08:05:03;99984.92;;;6.17;69.53
60920;BME280;59039;52.108;19.942;2023-02-18T08:07:29;99979.22;;;6.22;69.42
60920;BME280;59039;52.108;19.942;2023-02-18T08:12:57;99984.88;;;6.27;69.83
60920;BME280;59039;52.108;19.942;2023-02-18T08:15:23;99984.36;;;6.29;69.70
60920;BME280;59039;52.108;19.942;2023-02-18T08:17:48;99969.27;;;6.31;68.51
60920;BME280;59039;52.108;19.942;2023-02-18T08:25:53;99971.27;;;6.36;67.58
60920;BME280;59039;52.108;19.942;2023-02-18T08:31:20;99977.81;;;6.40;68.08
60920;BME280;59039;52.108;19.942;2023-02-18T08:33:56;99975.55;;;6.41;67.39
60920;BME280;59039;52.108;19.942;2023-02-18T08:36:28;99969.73;;;6.43;68.31
60920;BME280;59039;52.108;19.942;2023-02-18T08:39:00;99975.54;;;6.45;67.48
60920;BME280;59039;52.108;19.942;2023-02-18T08:41:42;99971.95;;;6.47;67.88
60920;BME280;59039;52.108;19.942;2023-02-18T08:44:23;99972.88;;;6.49;67.22
60920;BME280;59039;52.108;19.942;2023-02-18T08:47:12;99966.81;;;6.52;68.09
60920;BME280;59039;52.108;19.942;2023-02-18T08:50:18;99967.95;;;6.55;67.44
60920;BME280;59039;52.108;19.942;2023-02-18T08:52:53;99960.98;;;6.63;67.28
60920;BME280;59039;52.108;19.942;2023-02-18T08:55:39;99961.14;;;6.68;67.14
60920;BME280;59039;52.108;19.942;2023-02-18T09:00:46;99965.33;;;6.78;67.21
60920;BME280;59039;52.108;19.942;2023-02-18T09:03:16;99961.64;;;6.83;66.75
60920;BME280;59039;52.108;19.942;2023-02-18T09:05:46;99955.44;;;6.87;66.12
60920;BME280;59039;52.108;19.942;2023-02-18T09:08:21;99959.22;;;6.92;66.47
60920;BME280;59039;52.108;19.942;2023-02-18T09:11:06;99969.27;;;6.94;66.12
60920;BME280;59039;52.108;19.942;2023-02-18T09:13:37;99976.39;;;6.97;65.50
60920;BME280;59039;52.108;19.942;2023-02-18T09:16:22;99974.08;;;6.98;65.74
60920;BME280;59039;52.108;19.942;2023-02-18T09:18:53;99974.74;;;6.99;65.44
60920;BME280;59039;52.108;19.942;2023-02-18T09:21:22;99981.02;;;7.01;65.88
60920;BME280;59039;52.108;19.942;2023-02-18T09:23:48;99986.23;;;7.05;66.76
60920;BME280;59039;52.108;19.942;2023-02-18T09:26:23;99986.55;;;7.05;65.86
60920;BME280;59039;52.108;19.942;2023-02-18T09:29:02;99986.75;;;7.07;65.88
60920;BME280;59039;52.108;19.942;2023-02-18T09:31:33;99997.12;;;7.08;66.00
60920;BME280;59039;52.108;19.942;2023-02-18T09:34:02;99997.17;;;7.05;64.95
60920;BME280;59039;52.108;19.942;2023-02-18T09:36:28;100006.45;;;7.02;64.63
60920;BME280;59039;52.108;19.942;2023-02-18T09:39:01;100002.55;;;7.04;66.57
60920;BME280;59039;52.108;19.942;2023-02-18T09:44:44;100002.23;;;7.02;66.22
60920;BME280;59039;52.108;19.942;2023-02-18T09:50:26;100011.33;;;6.97;63.92
60920;BME280;59039;52.108;19.942;2023-02-18T09:53:00;100013.90;;;6.94;65.14
60920;BME280;59039;52.108;19.942;2023-02-18T09:55:38;100007.88;;;6.93;64.98
60920;BME280;59039;52.108;19.942;2023-02-18T09:58:11;100012.67;;;6.96;67.05
60920;BME280;59039;52.108;19.942;2023-02-18T10:00:45;100019.09;;;6.95;65.86
60920;BME280;59039;52.108;19.942;2023-02-18T10:03:20;100019.85;;;6.96;65.60
60920;BME280;59039;52.108;19.942;2023-02-18T10:06:14;100020.98;;;6.97;66.91
60920;BME280;59039;52.108;19.942;2023-02-18T10:08:45;100024.17;;;6.98;66.18
60920;BME280;59039;52.108;19.942;2023-02-18T10:11:21;100028.21;;;6.97;66.09
60920;BME280;59039;52.108;19.942;2023-02-18T10:13:52;100024.23;;;6.97;66.69
60920;BME280;59039;52.108;19.942;2023-02-18T10:16:22;100027.02;;;6.95;65.36
60920;BME280;59039;52.108;19.942;2023-02-18T10:19:45;100026.52;;;6.92;65.73
60920;BME280;59039;52.108;19.942;2023-02-18T10:21:45;100027.92;;;6.88;66.21
60920;BME280;59039;52.108;19.942;2023-02-18T10:27:34;100028.14;;;6.84;66.63
60920;BME280;59039;52.108;19.942;2023-02-18T10:30:26;100022.89;;;6.82;66.35
60920;BME280;59039;52.108;19.942;2023-02-18T10:36:26;100008.81;;;6.81;67.08
60920;BME280;59039;52.108;19.942;2023-02-18T10:39:09;100019.21;;;6.80;66.09
60920;BME280;59039;52.108;19.942;2023-02-18T10:41:50;100017.14;;;6.78;66.48
60920;BME280;59039;52.108;19.942;2023-02-18T10:44:35;100018.27;;;6.80;66.86
60920;BME280;59039;52.108;19.942;2023-02-18T10:47:53;100015.91;;;6.82;67.54
60920;BME280;59039;52.108;19.942;2023-02-18T10:50:31;100018.88;;;6.83;66.68
60920;BME280;59039;52.108;19.942;2023-02-18T10:53:32;100021.04;;;6.83;66.27
60920;BME280;59039;52.108;19.942;2023-02-18T10:56:30;100017.91;;;6.84;67.24
60920;BME280;59039;52.108;19.942;2023-02-18T11:04:17;100014.39;;;6.81;66.34
60920;BME280;59039;52.108;19.942;2023-02-18T11:06:46;100007.18;;;6.81;65.87
60920;BME280;59039;52.108;19.942;2023-02-18T11:09:39;100007.02;;;6.83;66.70
60920;BME280;59039;52.108;19.942;2023-02-18T11:12:19;100008.92;;;6.84;66.20
60920;BME280;59039;52.108;19.942;2023-02-18T11:15:03;100008.59;;;6.85;66.07
60920;BME280;59039;52.108;19.942;2023-02-18T11:20:22;100001.54;;;6.89;65.25
60920;BME280;59039;52.108;19.942;2023-02-18T11:22:51;99991.44;;;6.92;65.29
60920;BME280;59039;52.108;19.942;2023-02-18T11:25:24;99983.48;;;6.94;65.42
60920;BME280;59039;52.108;19.942;2023-02-18T11:31:05;99985.53;;;7.01;66.87
60920;BME280;59039;52.108;19.942;2023-02-18T11:33:46;99988.40;;;7.03;65.63
60920;BME280;59039;52.108;19.942;2023-02-18T11:36:36;99980.23;;;7.06;66.00
60920;BME280;59039;52.108;19.942;2023-02-18T11:39:25;99977.96;;;7.07;65.43
60920;BME280;59039;52.108;19.942;2023-02-18T11:42:07;99980.28;;;7.09;64.97
60920;BME280;59039;52.108;19.942;2023-02-18T11:47:22;99981.20;;;7.13;65.85
60920;BME280;59039;52.108;19.942;2023-02-18T11:50:20;99981.73;;;7.15;64.68
60920;BME280;59039;52.108;19.942;2023-02-18T11:55:29;99956.49;;;7.19;63.91
60920;BME280;59039;52.108;19.942;2023-02-18T11:58:12;99949.30;;;7.19;64.65
60920;BME280;59039;52.108;19.942;2023-02-18T12:03:44;99945.98;;;7.21;65.46
60920;BME280;59039;52.108;19.942;2023-02-18T12:06:45;99946.77;;;7.24;66.28
60920;BME280;59039;52.108;19.942;2023-02-18T12:09:28;99943.27;;;7.27;66.51
60920;BME280;59039;52.108;19.942;2023-02-18T12:12:33;99937.70;;;7.31;66.67
60920;BME280;59039;52.108;19.942;2023-02-18T12:15:07;99934.83;;;7.33;66.44
60920;BME280;59039;52.108;19.942;2023-02-18T12:23:25;99914.84;;;7.42;66.68
60920;BME280;59039;52.108;19.942;2023-02-18T12:26:34;99915.77;;;7.47;67.25
60920;BME280;59039;52.108;19.942;2023-02-18T12:29:31;99903.67;;;7.53;65.89
60920;BME280;59039;52.108;19.942;2023-02-18T12:42:54;99895.23;;;7.71;64.45
60920;BME280;59039;52.108;19.942;2023-02-18T12:49:03;99898.27;;;7.73;64.57
60920;BME280;59039;52.108;19.942;2023-02-18T12:57:18;99887.08;;;7.73;64.56
60920;BME280;59039;52.108;19.942;2023-02-18T13:00:02;99886.30;;;7.74;64.86
60920;BME280;59039;52.108;19.942;2023-02-18T13:05:31;99882.39;;;7.77;65.82
60920;BME280;59039;52.108;19.942;2023-02-18T13:14:25;99885.03;;;7.78;65.14
60920;BME280;59039;52.108;19.942;2023-02-18T13:17:01;99882.41;;;7.79;65.83
60920;BME280;59039;52.108;19.942;2023-02-18T13:19:49;99881.96;;;7.80;66.21
60920;BME280;59039;52.108;19.942;2023-02-18T13:22:28;99880.16;;;7.80;65.34
60920;BME280;59039;52.108;19.942;2023-02-18T13:24:59;99878.50;;;7.80;66.65
60920;BME280;59039;52.108;19.942;2023-02-18T13:27:36;99875.80;;;7.80;66.80
60920;BME280;59039;52.108;19.942;2023-02-18T13:33:39;99882.77;;;7.79;64.86
60920;BME280;59039;52.108;19.942;2023-02-18T13:36:23;99881.21;;;7.80;66.32
60920;BME280;59039;52.108;19.942;2023-02-18T13:39:05;99878.89;;;7.82;66.15
60920;BME280;59039;52.108;19.942;2023-02-18T13:41:47;99883.25;;;7.83;68.07
60920;BME280;59039;52.108;19.942;2023-02-18T13:47:10;99874.86;;;7.84;66.38
60920;BME280;59039;52.108;19.942;2023-02-18T13:49:38;99870.11;;;7.85;67.17
60920;BME280;59039;52.108;19.942;2023-02-18T13:52:18;99869.52;;;7.85;67.35
60920;BME280;59039;52.108;19.942;2023-02-18T13:55:13;99860.19;;;7.85;65.54
60920;BME280;59039;52.108;19.942;2023-02-18T13:57:46;99853.59;;;7.84;65.18
60920;BME280;59039;52.108;19.942;2023-02-18T14:00:43;99844.89;;;7.83;64.46
60920;BME280;59039;52.108;19.942;2023-02-18T14:06:25;99840.21;;;7.82;65.06
60920;BME280;59039;52.108;19.942;2023-02-18T14:11:44;99823.46;;;7.86;67.48
60920;BME280;59039;52.108;19.942;2023-02-18T14:19:41;99816.02;;;7.86;66.11
60920;BME280;59039;52.108;19.942;2023-02-18T14:22:28;99808.92;;;7.87;65.66
60920;BME280;59039;52.108;19.942;2023-02-18T14:25:19;99804.75;;;7.87;65.70
60920;BME280;59039;52.108;19.942;2023-02-18T14:27:49;99800.52;;;7.88;65.90
60920;BME280;59039;52.108;19.942;2023-02-18T14:30:40;99787.41;;;7.89;66.56
60920;BME280;59039;52.108;19.942;2023-02-18T14:33:13;99783.55;;;7.90;67.18
60920;BME280;59039;52.108;19.942;2023-02-18T14:35:48;99773.35;;;7.87;65.81
60920;BME280;59039;52.108;19.942;2023-02-18T14:38:27;99772.96;;;7.86;65.55
60920;BME280;59039;52.108;19.942;2023-02-18T14:51:42;99792.84;;;7.69;67.58
60920;BME280;59039;52.108;19.942;2023-02-18T14:54:32;99793.77;;;7.65;68.46
60920;BME280;59039;52.108;19.942;2023-02-18T14:57:06;99788.88;;;7.62;69.45
60920;BME280;59039;52.108;19.942;2023-02-18T14:59:38;99789.73;;;7.55;69.35
60920;BME280;59039;52.108;19.942;2023-02-18T15:02:22;99795.27;;;7.50;69.40
60920;BME280;59039;52.108;19.942;2023-02-18T15:04:51;99797.59;;;7.43;70.15
60920;BME280;59039;52.108;19.942;2023-02-18T15:07:29;99797.02;;;7.34;70.51
60920;BME280;59039;52.108;19.942;2023-02-18T15:10:00;99797.20;;;7.26;71.20
60920;BME280;59039;52.108;19.942;2023-02-18T15:12:31;99798.05;;;7.21;71.79
60920;BME280;59039;52.108;19.942;2023-02-18T15:17:53;99790.34;;;7.08;72.72
60920;BME280;59039;52.108;19.942;2023-02-18T15:20:25;99790.55;;;7.00;73.03
60920;BME280;59039;52.108;19.942;2023-02-18T15:23:02;99788.20;;;6.91;73.19
60920;BME280;59039;52.108;19.942;2023-02-18T15:26:33;99791.34;;;6.80;73.36
60920;BME280;59039;52.108;19.942;2023-02-18T15:28:40;99794.00;;;6.69;73.71
60920;BME280;59039;52.108;19.942;2023-02-18T15:31:18;99797.48;;;6.59;73.93
60920;BME280;59039;52.108;19.942;2023-02-18T15:34:35;99810.39;;;6.50;74.31
60920;BME280;59039;52.108;19.942;2023-02-18T15:39:29;99809.92;;;6.34;75.08
60920;BME280;59039;52.108;19.942;2023-02-18T15:42:25;99814.25;;;6.28;75.48
60920;BME280;59039;52.108;19.942;2023-02-18T15:47:54;99821.23;;;6.18;76.28
60920;BME280;59039;52.108;19.942;2023-02-18T15:50:33;99822.29;;;6.15;76.42
60920;BME280;59039;52.108;19.942;2023-02-18T15:53:04;99819.05;;;6.09;76.14
60920;BME280;59039;52.108;19.942;2023-02-18T15:55:33;99821.36;;;6.01;76.50
60920;BME280;59039;52.108;19.942;2023-02-18T15:58:00;99819.00;;;5.92;77.19
60920;BME280;59039;52.108;19.942;2023-02-18T16:00:52;99816.27;;;5.86;77.22
60920;BME280;59039;52.108;19.942;2023-02-18T16:03:30;99815.67;;;5.80;77.28
60920;BME280;59039;52.108;19.942;2023-02-18T16:06:27;99815.58;;;5.68;77.33
60920;BME280;59039;52.108;19.942;2023-02-18T16:09:12;99807.73;;;5.55;77.19
60920;BME280;59039;52.108;19.942;2023-02-18T16:11:42;99808.39;;;5.47;77.49
60920;BME280;59039;52.108;19.942;2023-02-18T16:14:49;99808.51;;;5.42;77.43
60920;BME280;59039;52.108;19.942;2023-02-18T16:17:21;99805.45;;;5.34;77.63
60920;BME280;59039;52.108;19.942;2023-02-18T16:20:17;99808.54;;;5.28;77.97
60920;BME280;59039;52.108;19.942;2023-02-18T16:25:51;99815.13;;;5.14;78.69
60920;BME280;59039;52.108;19.942;2023-02-18T16:28:34;99810.21;;;5.07;78.68
60920;BME280;59039;52.108;19.942;2023-02-18T16:33:42;99801.89;;;4.97;79.22
60920;BME280;59039;52.108;19.942;2023-02-18T16:36:32;99800.30;;;4.92;78.98
60920;BME280;59039;52.108;19.942;2023-02-18T16:41:38;99792.39;;;4.85;79.75
60920;BME280;59039;52.108;19.942;2023-02-18T16:44:12;99790.59;;;4.83;80.01
60920;BME280;59039;52.108;19.942;2023-02-18T16:46:41;99790.27;;;4.82;79.85
60920;BME280;59039;52.108;19.942;2023-02-18T16:49:16;99789.02;;;4.82;80.27
60920;BME280;59039;52.108;19.942;2023-02-18T16:51:55;99793.35;;;4.84;80.39
60920;BME280;59039;52.108;19.942;2023-02-18T16:54:26;99794.36;;;4.85;80.30
60920;BME280;59039;52.108;19.942;2023-02-18T16:56:54;99794.00;;;4.85;80.12
60920;BME280;59039;52.108;19.942;2023-02-18T16:59:25;99803.34;;;4.84;80.32
60920;BME280;59039;52.108;19.942;2023-02-18T17:02:15;99803.81;;;4.81;80.56
60920;BME280;59039;52.108;19.942;2023-02-18T17:04:41;99800.74;;;4.79;80.58
60920;BME280;59039;52.108;19.942;2023-02-18T17:07:14;99797.48;;;4.78;80.51
60920;BME280;59039;52.108;19.942;2023-02-18T17:09:47;99802.69;;;4.78;80.54
60920;BME280;59039;52.108;19.942;2023-02-18T17:12:13;99812.42;;;4.75;80.61
60920;BME280;59039;52.108;19.942;2023-02-18T17:14:46;99812.75;;;4.73;80.36
60920;BME280;59039;52.108;19.942;2023-02-18T17:17:14;99802.48;;;4.72;80.51
60920;BME280;59039;52.108;19.942;2023-02-18T17:19:39;99798.73;;;4.69;80.45
60920;BME280;59039;52.108;19.942;2023-02-18T17:22:05;99797.33;;;4.67;80.53
60920;BME280;59039;52.108;19.942;2023-02-18T17:24:38;99795.84;;;4.65;80.67
60920;BME280;59039;52.108;19.942;2023-02-18T17:27:07;99794.92;;;4.64;80.68
60920;BME280;59039;52.108;19.942;2023-02-18T17:29:33;99792.64;;;4.61;80.95
60920;BME280;59039;52.108;19.942;2023-02-18T17:32:02;99794.30;;;4.58;81.07
60920;BME280;59039;52.108;19.942;2023-02-18T17:34:45;99795.33;;;4.56;81.30
60920;BME280;59039;52.108;19.942;2023-02-18T17:37:19;99788.64;;;4.55;81.39
60920;BME280;59039;52.108;19.942;2023-02-18T17:39:47;99779.86;;;4.55;81.41